Time;durP1;ratioP1;P1;durP2;ratioP2;P2;SDS_P1;SDS_P2;PMS_P1;PMS_P2;Temp;Humidity;BMP_temperature;BMP_pressure;BME280_temperature;BME280_humidity;BME280_pressure;Samples;Min_cycle;Max_cycle;Signal;HPM_P1;HPM_P2
2022/01/24 06:36:06;;;;;;;50.55;32.00;;;9.00;94.40;;;;;;5135352;27;20368;-74
2022/01/24 06:38:32;;;;;;;51.00;31.60;;;9.00;95.00;;;;;;5127617;27;20404;-74
2022/01/24 06:40:58;;;;;;;51.25;32.60;;;9.00;94.40;;;;;;5127628;27;20478;-74
2022/01/24 06:43:24;;;;;;;48.13;31.30;;;9.00;94.40;;;;;;5127155;27;20407;-75
2022/01/24 06:45:50;;;;;;;49.17;31.13;;;9.00;94.40;;;;;;5132020;27;20435;-74
2022/01/24 06:48:16;;;;;;;51.47;31.70;;;9.00;94.50;;;;;;5125441;27;20428;-74
2022/01/24 06:50:42;;;;;;;48.45;30.98;;;9.10;94.40;;;;;;5127469;27;20840;-73
2022/01/24 06:53:08;;;;;;;51.58;32.50;;;9.10;94.70;;;;;;5125666;27;20399;-72
2022/01/24 06:55:34;;;;;;;50.80;30.83;;;9.10;94.80;;;;;;5130975;27;20437;-73
2022/01/24 06:57:59;;;;;;;46.00;30.40;;;9.10;94.90;;;;;;5134444;27;20739;-72
2022/01/24 07:00:30;;;;;;;46.73;29.83;;;9.10;95.20;;;;;;5126872;27;20410;-74
2022/01/24 07:02:57;;;;;;;49.85;30.50;;;9.10;95.30;;;;;;5124658;27;20431;-74
2022/01/24 07:05:27;;;;;;;49.23;30.73;;;9.10;95.30;;;;;;5131860;27;20408;-74
2022/01/24 07:07:56;;;;;;;47.42;30.90;;;9.10;95.10;;;;;;5132935;27;20420;-74
2022/01/24 07:10:23;;;;;;;49.83;31.23;;;9.10;95.00;;;;;;5123901;27;20397;-75
2022/01/24 07:12:50;;;;;;;50.30;31.83;;;9.10;95.00;;;;;;5124669;27;20411;-71
2022/01/24 07:15:19;;;;;;;50.22;32.45;;;9.10;95.40;;;;;;5140996;27;20474;-74
2022/01/24 07:20:13;;;;;;;51.50;32.57;;;9.10;95.20;;;;;;5130800;27;20406;-75
2022/01/24 07:22:39;;;;;;;53.00;32.22;;;9.10;95.00;;;;;;5129547;27;20436;-74
2022/01/24 07:25:05;;;;;;;52.43;32.50;;;9.10;95.30;;;;;;5127716;27;20406;-74
2022/01/24 07:27:31;;;;;;;51.17;31.83;;;9.00;95.20;;;;;;5132221;27;20496;-73
2022/01/24 07:29:58;;;;;;;51.03;32.77;;;9.00;95.40;;;;;;5134446;27;20507;-74
2022/01/24 07:32:24;;;;;;;50.57;31.70;;;9.10;95.50;;;;;;5126492;27;20387;-74
2022/01/24 07:34:50;;;;;;;50.45;31.83;;;9.00;95.50;;;;;;5122534;27;20431;-74
2022/01/24 07:37:16;;;;;;;52.28;32.33;;;9.10;95.60;;;;;;5116950;27;20411;-75
2022/01/24 07:39:42;;;;;;;54.03;33.97;;;9.10;95.50;;;;;;5123555;27;20435;-75
2022/01/24 07:42:14;;;;;;;58.03;34.63;;;9.10;95.30;;;;;;5123199;27;20439;-72
2022/01/24 07:44:40;;;;;;;51.75;32.97;;;9.00;95.30;;;;;;5120361;27;20456;-73
2022/01/24 07:47:06;;;;;;;52.17;32.83;;;9.00;95.30;;;;;;5112179;27;20908;-74
2022/01/24 07:49:31;;;;;;;52.92;32.78;;;9.00;95.30;;;;;;5111532;27;20960;-72
2022/01/24 07:51:57;;;;;;;48.87;32.73;;;9.00;95.30;;;;;;5110267;28;20404;-74
2022/01/24 07:54:23;;;;;;;51.28;32.85;;;9.00;95.20;;;;;;5112826;27;20414;-73
2022/01/24 07:56:49;;;;;;;52.00;32.83;;;9.00;95.10;;;;;;5110111;28;20396;-73
2022/01/24 07:59:15;;;;;;;52.47;33.70;;;9.00;95.20;;;;;;5107868;28;20396;-73
2022/01/24 08:01:42;;;;;;;52.38;33.13;;;9.00;95.40;;;;;;5110624;27;20924;-72
2022/01/24 08:04:08;;;;;;;53.25;33.58;;;9.00;95.20;;;;;;5111049;28;20415;-74
2022/01/24 08:06:34;;;;;;;52.17;33.53;;;9.00;95.50;;;;;;5117919;27;20446;-74
2022/01/24 08:09:00;;;;;;;54.10;34.08;;;9.00;95.60;;;;;;5111478;27;20392;-73
2022/01/24 08:11:25;;;;;;;56.75;34.22;;;9.00;95.50;;;;;;5109712;28;20415;-73
2022/01/24 08:13:54;;;;;;;55.57;34.83;;;9.00;95.40;;;;;;5100812;27;20984;-74
2022/01/24 08:16:19;;;;;;;52.00;33.88;;;9.00;95.50;;;;;;5123155;27;20437;-73
2022/01/24 08:18:50;;;;;;;51.08;34.13;;;9.00;95.00;;;;;;5117550;27;20485;-72
2022/01/24 08:21:16;;;;;;;53.03;34.00;;;9.00;95.00;;;;;;5112426;27;20414;-73
2022/01/24 08:23:41;;;;;;;53.43;35.07;;;9.00;95.20;;;;;;5113574;27;20396;-72
2022/01/24 08:26:07;;;;;;;56.00;34.97;;;9.00;95.40;;;;;;5147296;27;20410;-73
2022/01/24 08:28:32;;;;;;;52.70;33.93;;;9.00;95.50;;;;;;5113789;27;20512;-74
2022/01/24 08:30:58;;;;;;;52.60;34.85;;;9.00;95.50;;;;;;5117122;27;20423;-73
2022/01/24 08:33:24;;;;;;;55.73;34.73;;;9.00;95.50;;;;;;5117433;27;20422;-73
2022/01/24 08:35:51;;;;;;;54.03;34.53;;;9.10;95.20;;;;;;5113585;27;20451;-72
2022/01/24 08:38:17;;;;;;;58.63;35.67;;;9.00;95.10;;;;;;5106937;27;20408;-71
2022/01/24 08:40:46;;;;;;;54.67;34.38;;;9.10;95.10;;;;;;5112721;27;20893;-74
2022/01/24 08:43:12;;;;;;;52.65;34.42;;;9.00;95.20;;;;;;5104009;27;20432;-71
2022/01/24 08:48:10;;;;;;;54.88;35.35;;;9.10;95.20;;;;;;5106155;27;20412;-72
2022/01/24 08:50:35;;;;;;;58.45;35.03;;;9.10;95.30;;;;;;5109527;27;20410;-72
2022/01/24 08:53:03;;;;;;;55.28;35.25;;;9.10;95.20;;;;;;5108369;28;20430;-71
2022/01/24 08:55:33;;;;;;;54.10;35.40;;;9.10;95.00;;;;;;5110170;27;20412;-70
2022/01/24 08:58:03;;;;;;;55.15;35.42;;;9.00;95.00;;;;;;5106734;28;20408;-71
2022/01/24 09:00:29;;;;;;;57.25;36.65;;;9.10;95.10;;;;;;5118002;27;20759;-72
2022/01/24 09:02:55;;;;;;;56.83;35.93;;;9.10;95.10;;;;;;5112348;27;20416;-71
2022/01/24 09:05:23;;;;;;;62.45;38.08;;;9.10;95.30;;;;;;5109532;27;20412;-72
2022/01/24 09:07:49;;;;;;;59.33;37.63;;;9.10;94.90;;;;;;5113764;27;20415;-70
2022/01/24 09:10:18;;;;;;;61.72;38.97;;;9.10;94.70;;;;;;5108603;27;20454;-72
2022/01/24 09:12:44;;;;;;;61.33;39.95;;;9.10;94.50;;;;;;5136319;27;20408;-70
2022/01/24 09:15:10;;;;;;;67.43;42.30;;;9.10;94.40;;;;;;5119863;27;20432;-72
2022/01/24 09:17:37;;;;;;;65.78;41.25;;;9.10;94.40;;;;;;5110994;27;20411;-71
2022/01/24 09:20:04;;;;;;;65.50;41.13;;;9.10;94.20;;;;;;5110128;28;20438;-72
2022/01/24 09:22:30;;;;;;;65.28;41.45;;;9.00;93.90;;;;;;5111103;27;20498;-72
2022/01/24 09:24:56;;;;;;;65.63;40.97;;;9.00;93.90;;;;;;5107312;28;20423;-71
2022/01/24 09:27:21;;;;;;;63.70;40.60;;;8.90;93.70;;;;;;5107147;27;20404;-72
2022/01/24 09:29:48;;;;;;;66.33;41.37;;;8.90;93.90;;;;;;5108213;28;20923;-71
2022/01/24 09:32:14;;;;;;;66.90;41.28;;;8.90;93.90;;;;;;5103842;28;20415;-71
2022/01/24 09:34:40;;;;;;;66.88;41.90;;;8.90;93.80;;;;;;5107765;28;20416;-72
2022/01/24 09:37:05;;;;;;;68.75;43.85;;;9.00;94.40;;;;;;5108127;27;20931;-71
2022/01/24 09:39:31;;;;;;;66.70;42.28;;;9.00;93.80;;;;;;5109488;28;20404;-70
2022/01/24 09:41:57;;;;;;;68.95;43.88;;;9.00;93.60;;;;;;5105944;28;20872;-72
2022/01/24 09:44:22;;;;;;;69.67;43.23;;;9.00;93.50;;;;;;5107650;28;20404;-70
2022/01/24 09:46:48;;;;;;;66.90;42.13;;;9.00;93.70;;;;;;5106242;28;20525;-70
2022/01/24 09:49:14;;;;;;;65.03;42.43;;;9.00;93.90;;;;;;5108286;27;20864;-70
2022/01/24 09:51:43;;;;;;;66.50;42.33;;;9.00;94.10;;;;;;5104883;28;20419;-69
2022/01/24 09:54:09;;;;;;;70.32;43.83;;;9.10;94.00;;;;;;5105800;28;20776;-72
2022/01/24 09:56:35;;;;;;;69.55;44.22;;;9.10;93.90;;;;;;5106795;28;20396;-70
2022/01/24 09:59:03;;;;;;;71.73;45.90;;;9.10;94.00;;;;;;5107141;27;20948;-69
2022/01/24 10:01:30;;;;;;;76.85;47.53;;;9.10;93.80;;;;;;5103480;28;20420;-70
2022/01/24 10:04:17;;;;;;;79.07;48.33;;;9.10;93.50;;;;;;5110308;27;20816;-70
2022/01/24 10:07:05;;;;;;;77.33;48.43;;;9.10;93.30;;;;;;5112435;27;20443;-71
2022/01/24 10:09:42;;;;;;;78.88;49.05;;;9.10;93.30;;;;;;5105442;27;20405;-70
2022/01/24 10:12:13;;;;;;;80.07;48.80;;;9.10;93.20;;;;;;5107061;27;20461;-70
2022/01/24 10:17:30;;;;;;;82.82;52.33;;;9.10;93.40;;;;;;5105159;28;20902;-70
2022/01/24 10:19:55;;;;;;;82.47;51.53;;;9.00;93.40;;;;;;5104850;27;20408;-70
2022/01/24 10:22:24;;;;;;;80.10;50.57;;;9.00;93.10;;;;;;5106245;28;20435;-70
2022/01/24 10:24:56;;;;;;;80.45;50.67;;;9.00;93.10;;;;;;5108593;27;20412;-70
2022/01/24 10:27:28;;;;;;;78.55;50.63;;;9.00;92.80;;;;;;5104603;27;20434;-70
2022/01/24 10:30:00;;;;;;;74.93;49.10;;;9.00;92.50;;;;;;5112427;28;20452;-70
2022/01/24 10:32:28;;;;;;;75.57;49.40;;;9.00;92.40;;;;;;5107976;28;20412;-70
2022/01/24 10:34:54;;;;;;;84.38;49.65;;;9.00;92.30;;;;;;5103111;28;20420;-71
2022/01/24 10:37:24;;;;;;;78.93;50.27;;;9.00;92.20;;;;;;5106345;28;20419;-70
2022/01/24 10:40:05;;;;;;;91.15;52.42;;;9.00;92.20;;;;;;5136281;27;21836;-70
2022/01/24 10:42:52;;;;;;;80.90;51.03;;;9.00;92.20;;;;;;5102614;28;20412;-70
2022/01/24 10:45:22;;;;;;;80.47;51.57;;;9.10;92.30;;;;;;5107213;28;20408;-70
2022/01/24 10:47:51;;;;;;;78.07;50.63;;;9.10;92.30;;;;;;5108045;27;20407;-70
2022/01/24 10:50:28;;;;;;;79.55;51.08;;;9.10;92.40;;;;;;5102766;28;20423;-71
2022/01/24 10:52:54;;;;;;;80.95;51.90;;;9.10;91.70;;;;;;5106164;28;20422;-70
2022/01/24 10:55:29;;;;;;;79.40;51.77;;;9.00;91.60;;;;;;5106636;28;20435;-69
2022/01/24 10:57:59;;;;;;;82.53;51.72;;;9.00;91.70;;;;;;5102525;28;20412;-70
2022/01/24 11:00:27;;;;;;;79.20;50.83;;;8.90;91.60;;;;;;5104208;28;20566;-69
2022/01/24 11:02:55;;;;;;;81.32;52.63;;;8.90;91.90;;;;;;5107143;28;20458;-70
2022/01/24 11:05:24;;;;;;;79.90;51.30;;;8.90;92.10;;;;;;5109904;28;20416;-70
2022/01/24 11:07:53;;;;;;;78.63;50.70;;;9.00;91.80;;;;;;5105143;28;20412;-71
2022/01/24 11:10:19;;;;;;;79.40;49.90;;;9.00;91.70;;;;;;5108132;28;20408;-71
2022/01/24 11:12:45;;;;;;;79.35;49.60;;;9.00;91.90;;;;;;5114246;27;20408;-70
2022/01/24 11:15:11;;;;;;;80.10;50.73;;;9.00;91.50;;;;;;5116744;27;20924;-70
2022/01/24 11:17:37;;;;;;;76.78;49.92;;;9.10;91.80;;;;;;5107540;28;20495;-69
2022/01/24 11:20:04;;;;;;;81.90;51.47;;;9.10;91.20;;;;;;5102359;28;20406;-71
2022/01/24 11:22:33;;;;;;;75.00;49.22;;;9.10;91.60;;;;;;5114338;27;20414;-70
2022/01/24 11:25:06;;;;;;;74.88;48.15;;;9.10;91.30;;;;;;5112155;27;20490;-70
2022/01/24 11:27:33;;;;;;;75.43;49.75;;;9.10;91.00;;;;;;5114249;27;21108;-70
2022/01/24 11:30:07;;;;;;;73.65;48.15;;;9.10;91.10;;;;;;5115472;27;20421;-70
2022/01/24 11:32:42;;;;;;;74.10;48.90;;;9.20;91.10;;;;;;5116933;27;20798;-70
2022/01/24 11:35:09;;;;;;;72.97;48.78;;;9.10;91.10;;;;;;5123141;27;20902;-70
2022/01/24 11:37:38;;;;;;;75.88;49.00;;;9.20;91.50;;;;;;5120182;27;20399;-70
2022/01/24 11:40:08;;;;;;;72.80;48.40;;;9.20;91.60;;;;;;5112129;27;20494;-71
2022/01/24 11:42:36;;;;;;;73.25;47.05;;;9.30;91.30;;;;;;5115495;27;20404;-69
2022/01/24 11:45:10;;;;;;;72.63;46.80;;;9.30;90.60;;;;;;5113361;27;20414;-70
2022/01/24 11:47:36;;;;;;;70.88;45.80;;;9.30;90.40;;;;;;5125447;27;20421;-69
2022/01/24 11:50:21;;;;;;;71.43;48.27;;;9.30;90.20;;;;;;5127200;27;20403;-70
2022/01/24 11:52:47;;;;;;;79.43;50.33;;;9.30;90.40;;;;;;5120751;27;20406;-70
2022/01/24 11:55:27;;;;;;;76.60;48.87;;;9.20;90.40;;;;;;5113076;27;20408;-70
2022/01/24 11:57:58;;;;;;;75.07;48.30;;;9.20;90.40;;;;;;5107937;28;20391;-69
2022/01/24 12:00:26;;;;;;;77.38;50.08;;;9.30;90.40;;;;;;5111563;27;20800;-69
2022/01/24 12:02:59;;;;;;;72.75;46.83;;;9.20;90.20;;;;;;5091753;28;20404;-70
2022/01/24 12:05:39;;;;;;;72.95;48.20;;;9.30;90.40;;;;;;5110855;28;20721;-70
2022/01/24 12:08:07;;;;;;;78.38;50.40;;;9.30;90.30;;;;;;5111299;28;20415;-69
2022/01/24 12:10:35;;;;;;;77.60;49.53;;;9.30;90.80;;;;;;5111723;27;20407;-70
2022/01/24 12:13:36;;;;;;;75.40;49.15;;;9.40;90.40;;;;;;5110332;28;20516;-70
2022/01/24 12:16:06;;;;;;;78.18;50.05;;;9.40;90.40;;;;;;5112180;27;20416;-70
2022/01/24 12:18:33;;;;;;;76.38;48.53;;;9.30;90.10;;;;;;5110321;28;20479;-70
2022/01/24 12:21:05;;;;;;;79.88;52.47;;;9.40;90.00;;;;;;5113470;27;20446;-70
2022/01/24 12:23:42;;;;;;;78.22;50.85;;;9.40;90.30;;;;;;5112081;27;20490;-70
2022/01/24 12:26:13;;;;;;;76.37;50.23;;;9.40;90.40;;;;;;5123347;27;20857;-69
2022/01/24 12:28:42;;;;;;;74.93;48.33;;;9.50;90.70;;;;;;5108768;28;20487;-70
2022/01/24 12:31:10;;;;;;;75.10;49.58;;;9.60;90.50;;;;;;5115396;27;20837;-70
2022/01/24 12:33:39;;;;;;;72.40;48.30;;;9.50;90.20;;;;;;5121644;27;20415;-70
2022/01/24 12:36:10;;;;;;;76.05;48.20;;;9.60;90.10;;;;;;5108992;28;20484;-70
2022/01/24 12:38:44;;;;;;;75.35;47.42;;;9.60;89.70;;;;;;5116222;27;20766;-70
2022/01/24 12:41:33;;;;;;;74.07;48.72;;;9.60;88.60;;;;;;5098186;28;20904;-70
2022/01/24 12:44:12;;;;;;;75.05;49.65;;;9.50;89.20;;;;;;5114164;27;20420;-71
2022/01/24 12:46:39;;;;;;;69.43;47.15;;;9.50;89.80;;;;;;5092079;28;20399;-70
2022/01/24 12:49:07;;;;;;;75.85;50.65;;;9.50;89.60;;;;;;5111780;27;20400;-70
2022/01/24 12:51:35;;;;;;;75.70;50.10;;;9.60;90.10;;;;;;5108405;27;20408;-70
2022/01/24 12:54:04;;;;;;;91.40;53.40;;;9.60;89.70;;;;;;5120057;27;20532;-71
2022/01/24 12:56:33;;;;;;;74.50;49.33;;;9.60;89.90;;;;;;5115171;27;20425;-71
2022/01/24 12:59:00;;;;;;;77.50;52.07;;;9.60;90.00;;;;;;5118664;27;20408;-70
2022/01/24 13:01:34;;;;;;;72.38;48.72;;;9.60;89.70;;;;;;5112259;27;20431;-70
2022/01/24 13:04:08;;;;;;;71.70;47.85;;;9.60;88.80;;;;;;5109518;28;20771;-71
2022/01/24 13:06:36;;;;;;;74.63;50.57;;;9.60;88.30;;;;;;5117555;27;20402;-71
2022/01/24 13:09:16;;;;;;;77.88;51.50;;;9.50;88.30;;;;;;5128091;27;20807;-70
2022/01/24 13:11:45;;;;;;;76.20;50.95;;;9.50;89.40;;;;;;5112651;27;20403;-71
2022/01/24 13:14:20;;;;;;;75.87;50.37;;;9.50;89.40;;;;;;5114446;27;20404;-70
2022/01/24 13:22:36;;;;;;;77.47;50.22;;;9.50;89.10;;;;;;5112792;27;20414;-71
2022/01/24 13:25:08;;;;;;;76.25;49.28;;;9.50;89.30;;;;;;5122240;27;20412;-71
2022/01/24 13:27:35;;;;;;;74.65;49.17;;;9.60;88.60;;;;;;5115419;27;20407;-70
2022/01/24 13:30:05;;;;;;;74.25;48.70;;;9.50;88.80;;;;;;5111070;27;20441;-70
2022/01/24 13:32:41;;;;;;;78.77;49.80;;;9.50;88.40;;;;;;5109859;27;20404;-71
2022/01/24 13:35:23;;;;;;;77.47;50.55;;;9.40;89.00;;;;;;5111366;27;20988;-71
2022/01/24 13:37:50;;;;;;;77.40;50.10;;;9.40;89.70;;;;;;5111713;27;20406;-70
2022/01/24 13:40:40;;;;;;;77.35;50.22;;;9.50;90.00;;;;;;5108565;27;20951;-70
2022/01/24 13:43:09;;;;;;;76.53;48.92;;;9.50;90.10;;;;;;5108155;28;20780;-70
2022/01/24 13:45:36;;;;;;;80.68;50.08;;;9.50;90.10;;;;;;5108831;27;20487;-70
2022/01/24 13:48:05;;;;;;;73.45;48.53;;;9.50;90.00;;;;;;5108658;27;20423;-70
2022/01/24 13:50:31;;;;;;;80.00;49.58;;;9.60;90.50;;;;;;5112974;27;20400;-71
2022/01/24 13:52:56;;;;;;;78.67;49.87;;;9.60;90.00;;;;;;5108925;27;20422;-70
2022/01/24 13:55:23;;;;;;;78.35;50.15;;;9.60;89.90;;;;;;5108932;28;20448;-70
2022/01/24 13:57:51;;;;;;;78.13;50.22;;;9.60;90.00;;;;;;5116850;27;20398;-71
2022/01/24 14:00:28;;;;;;;74.17;49.70;;;9.60;90.20;;;;;;5109430;27;20411;-71
2022/01/24 14:03:10;;;;;;;73.60;48.70;;;9.60;89.80;;;;;;5108558;28;20412;-71
2022/01/24 14:05:36;;;;;;;83.75;54.13;;;9.50;89.00;;;;;;5104158;28;20491;-70
2022/01/24 14:08:17;;;;;;;79.45;49.92;;;9.50;89.60;;;;;;5109552;28;20522;-70
2022/01/24 14:10:43;;;;;;;75.03;49.17;;;9.50;90.00;;;;;;5118595;27;20767;-70
2022/01/24 14:13:10;;;;;;;75.57;48.95;;;9.60;90.40;;;;;;5108740;28;20432;-71
2022/01/24 14:20:54;;;;;;;75.95;49.08;;;9.60;90.20;;;;;;5107368;28;20404;-70
2022/01/24 14:23:38;;;;;;;79.00;49.63;;;9.60;90.30;;;;;;5109203;28;20483;-70
2022/01/24 14:26:22;;;;;;;78.65;48.97;;;9.50;90.70;;;;;;5111142;28;20400;-70
2022/01/24 14:29:06;;;;;;;80.40;48.88;;;9.50;90.40;;;;;;5108548;28;20744;-70
2022/01/24 14:31:33;;;;;;;80.72;50.75;;;9.50;90.50;;;;;;5108761;28;20961;-70
2022/01/24 14:34:04;;;;;;;83.10;50.22;;;9.50;90.90;;;;;;5117688;27;20803;-70
2022/01/24 14:36:30;;;;;;;82.28;49.75;;;9.50;90.90;;;;;;5108505;28;20436;-69
2022/01/24 14:39:00;;;;;;;79.47;49.97;;;9.50;90.90;;;;;;5107868;28;20424;-71
2022/01/24 14:41:44;;;;;;;72.10;47.30;;;9.50;91.00;;;;;;5107150;28;20432;-70
2022/01/24 14:46:56;;;;;;;75.05;48.58;;;9.50;90.40;;;;;;5110752;27;20403;-70
2022/01/24 14:49:25;;;;;;;74.88;49.58;;;9.50;90.20;;;;;;5108477;28;20403;-70
2022/01/24 14:51:59;;;;;;;76.97;49.43;;;9.40;90.20;;;;;;5121396;28;20942;-71
2022/01/24 14:54:34;;;;;;;77.20;50.45;;;9.40;90.30;;;;;;5114387;27;20763;-70
2022/01/24 14:57:02;;;;;;;73.93;49.63;;;9.40;90.40;;;;;;5115225;27;20403;-70
2022/01/24 14:59:28;;;;;;;78.57;50.63;;;9.40;90.90;;;;;;5114867;27;20450;-70
2022/01/24 15:01:56;;;;;;;78.70;49.75;;;9.40;90.70;;;;;;5118907;27;20493;-71
2022/01/24 15:04:22;;;;;;;77.82;50.38;;;9.50;90.60;;;;;;5111762;27;20422;-71
2022/01/24 15:06:49;;;;;;;75.67;49.33;;;9.40;90.40;;;;;;5125772;27;20398;-71
2022/01/24 15:09:28;;;;;;;80.50;51.97;;;9.40;90.00;;;;;;5112576;27;20411;-70
2022/01/24 15:11:57;;;;;;;76.18;49.60;;;9.40;90.20;;;;;;5106908;28;20494;-70
2022/01/24 15:14:36;;;;;;;81.85;50.60;;;9.40;90.10;;;;;;5109529;28;20412;-70
2022/01/24 15:17:28;;;;;;;80.60;50.70;;;9.30;90.40;;;;;;5112144;27;20407;-70
2022/01/24 15:25:39;;;;;;;77.10;49.08;;;9.30;90.40;;;;;;5110046;27;20478;-70
2022/01/24 15:28:05;;;;;;;79.97;51.47;;;9.20;90.40;;;;;;5106978;28;20415;-71
2022/01/24 15:30:33;;;;;;;75.15;48.83;;;9.20;90.60;;;;;;5115874;27;20759;-70
2022/01/24 15:32:59;;;;;;;77.32;49.70;;;9.20;90.60;;;;;;5139301;27;20418;-70
2022/01/24 15:35:25;;;;;;;77.78;50.83;;;9.10;90.50;;;;;;5110520;28;20423;-70
2022/01/24 15:37:50;;;;;;;78.37;50.80;;;9.10;90.60;;;;;;5103929;28;20410;-70
2022/01/24 15:40:17;;;;;;;77.38;49.33;;;9.10;90.70;;;;;;5109182;28;20407;-70
2022/01/24 15:48:01;;;;;;;74.63;49.50;;;9.00;90.70;;;;;;5110818;27;20888;-70
2022/01/24 15:50:27;;;;;;;77.32;49.40;;;9.00;90.60;;;;;;5105252;28;20505;-71
2022/01/24 15:52:54;;;;;;;76.37;49.57;;;9.00;90.80;;;;;;5108788;27;20491;-71
2022/01/24 15:55:28;;;;;;;75.07;49.23;;;9.00;90.70;;;;;;5116932;27;20477;-71
2022/01/24 15:57:55;;;;;;;76.00;49.22;;;9.00;91.00;;;;;;5113914;27;20513;-71
2022/01/24 16:00:23;;;;;;;78.00;51.53;;;9.00;91.10;;;;;;5110515;27;20469;-71
2022/01/24 16:02:51;;;;;;;78.77;51.03;;;9.00;90.90;;;;;;5108537;27;20404;-71
2022/01/24 16:05:19;;;;;;;76.55;50.45;;;9.00;91.00;;;;;;5119804;27;20407;-70
2022/01/24 16:07:46;;;;;;;77.35;50.80;;;9.00;91.20;;;;;;5101276;27;20445;-71
2022/01/24 16:10:15;;;;;;;79.03;50.65;;;9.00;90.90;;;;;;5137644;27;20454;-70
2022/01/24 16:12:43;;;;;;;74.82;48.42;;;9.00;90.70;;;;;;5106893;27;20770;-71
2022/01/24 16:15:10;;;;;;;77.60;49.28;;;9.00;90.40;;;;;;5108316;27;20412;-71
2022/01/24 16:17:35;;;;;;;76.05;49.70;;;9.00;90.60;;;;;;5110773;27;20760;-71
2022/01/24 16:20:20;;;;;;;79.60;50.57;;;9.00;90.90;;;;;;5119119;27;20398;-71
2022/01/24 16:23:01;;;;;;;76.18;50.65;;;9.00;91.10;;;;;;5109559;27;20414;-70
2022/01/24 16:25:34;;;;;;;77.03;50.33;;;8.90;91.10;;;;;;5107989;27;20448;-70
2022/01/24 16:28:16;;;;;;;74.43;49.15;;;8.90;91.20;;;;;;5108335;28;20743;-70
2022/01/24 16:30:46;;;;;;;73.68;49.70;;;9.00;91.60;;;;;;5105153;27;20430;-71
2022/01/24 16:33:12;;;;;;;73.63;49.58;;;9.00;91.00;;;;;;5114101;27;20564;-71
2022/01/24 16:35:38;;;;;;;75.97;49.80;;;9.00;91.10;;;;;;5102050;28;20428;-71
2022/01/24 16:38:06;;;;;;;73.63;49.00;;;9.00;91.10;;;;;;5106558;27;20456;-68
2022/01/24 16:40:59;;;;;;;74.18;48.88;;;9.00;91.10;;;;;;5106444;28;20400;-72
2022/01/24 16:48:43;;;;;;;74.82;50.38;;;8.90;91.00;;;;;;5102640;27;20407;-71
2022/01/24 16:51:12;;;;;;;73.55;48.80;;;8.90;90.90;;;;;;5112565;27;20398;-71
2022/01/24 16:53:44;;;;;;;75.22;49.70;;;8.90;91.00;;;;;;5109215;27;20407;-70
2022/01/24 16:56:11;;;;;;;72.40;49.58;;;8.90;90.90;;;;;;5111948;27;20488;-71
2022/01/24 16:58:37;;;;;;;73.90;49.97;;;8.90;91.20;;;;;;5107541;27;20408;-70
2022/01/24 17:01:04;;;;;;;76.00;49.93;;;8.90;91.30;;;;;;5108876;28;20407;-70
2022/01/24 17:03:31;;;;;;;73.60;49.42;;;8.90;91.30;;;;;;5108371;28;20407;-70
2022/01/24 17:05:57;;;;;;;73.73;49.73;;;8.90;91.30;;;;;;5109453;27;20404;-71
2022/01/24 17:08:24;;;;;;;77.22;51.13;;;8.90;91.00;;;;;;5110737;27;20423;-70
2022/01/24 17:10:50;;;;;;;79.18;50.83;;;8.80;91.00;;;;;;5107936;28;20933;-70
2022/01/24 17:13:17;;;;;;;78.43;50.08;;;8.80;91.30;;;;;;5109278;28;20461;-70
2022/01/24 17:15:48;;;;;;;78.72;50.75;;;8.80;91.50;;;;;;5108814;28;20560;-70
2022/01/24 17:18:23;;;;;;;79.80;50.53;;;8.80;91.10;;;;;;5105602;28;20396;-70
2022/01/24 17:20:50;;;;;;;75.78;50.33;;;8.80;91.10;;;;;;5119411;27;20423;-72
2022/01/24 17:23:16;;;;;;;77.80;51.47;;;8.80;91.10;;;;;;5109058;27;20436;-71
2022/01/24 17:25:42;;;;;;;74.07;48.92;;;8.80;91.30;;;;;;5109500;28;20388;-69
2022/01/24 17:28:08;;;;;;;82.38;51.53;;;8.80;91.00;;;;;;5109224;28;20434;-71
2022/01/24 17:30:35;;;;;;;75.57;50.03;;;8.80;91.40;;;;;;5112812;27;20988;-71
2022/01/24 17:33:01;;;;;;;77.07;51.33;;;8.80;91.60;;;;;;5107433;28;20420;-71
2022/01/24 17:35:29;;;;;;;79.30;52.00;;;8.80;91.60;;;;;;5106749;28;20435;-72
2022/01/24 17:37:56;;;;;;;82.45;53.22;;;8.80;91.60;;;;;;5107266;28;20412;-71
2022/01/24 17:40:23;;;;;;;80.73;53.00;;;8.80;91.60;;;;;;5109024;28;20400;-72
2022/01/24 17:42:51;;;;;;;81.33;52.20;;;8.80;91.40;;;;;;5106164;28;20486;-73
2022/01/24 17:45:17;;;;;;;78.68;50.67;;;8.80;91.60;;;;;;5107938;28;20430;-72
2022/01/24 17:47:44;;;;;;;83.53;53.17;;;8.80;91.20;;;;;;5107065;28;20421;-71
2022/01/24 17:50:11;;;;;;;80.90;51.67;;;8.70;91.40;;;;;;5091061;28;20402;-71
2022/01/24 17:52:37;;;;;;;86.85;54.05;;;8.70;91.50;;;;;;5114308;27;20453;-71
2022/01/24 17:55:04;;;;;;;80.80;51.97;;;8.70;91.70;;;;;;5106245;27;20911;-72
2022/01/24 17:57:29;;;;;;;84.05;53.15;;;8.80;91.90;;;;;;5108101;27;20487;-71
2022/01/24 17:59:55;;;;;;;82.65;51.90;;;8.80;92.30;;;;;;5108502;28;20547;-74
2022/01/24 18:02:21;;;;;;;85.67;53.23;;;8.70;92.20;;;;;;5103659;27;20396;-72
2022/01/24 18:04:46;;;;;;;82.80;52.35;;;8.70;92.30;;;;;;5107282;28;20435;-72
2022/01/24 18:07:13;;;;;;;86.17;52.77;;;8.80;92.40;;;;;;5117181;27;20499;-73
2022/01/24 18:09:39;;;;;;;84.75;53.30;;;8.70;92.60;;;;;;5118131;27;20409;-73
2022/01/24 18:12:05;;;;;;;87.07;53.13;;;8.70;92.70;;;;;;5107956;28;20400;-73
2022/01/24 18:14:31;;;;;;;82.87;52.27;;;8.70;92.80;;;;;;5116211;27;20408;-73
2022/01/24 18:16:57;;;;;;;86.43;53.60;;;8.70;93.00;;;;;;5107995;28;20421;-73
2022/01/24 18:19:23;;;;;;;83.78;52.20;;;8.70;92.80;;;;;;5112756;27;20403;-72
2022/01/24 18:21:48;;;;;;;84.80;52.03;;;8.70;92.80;;;;;;5108443;28;20407;-72
2022/01/24 18:24:15;;;;;;;85.63;52.55;;;8.70;92.90;;;;;;5110761;28;20420;-71
2022/01/24 18:26:40;;;;;;;87.25;54.85;;;8.70;93.00;;;;;;5107845;28;20404;-73
2022/01/24 18:29:06;;;;;;;87.97;53.77;;;8.70;92.90;;;;;;5107650;28;20457;-70
2022/01/24 18:31:32;;;;;;;87.78;53.08;;;8.70;92.80;;;;;;5107814;28;20395;-70
2022/01/24 18:33:57;;;;;;;81.27;51.33;;;8.60;92.60;;;;;;5107223;28;20404;-70
2022/01/24 18:36:23;;;;;;;83.47;50.63;;;8.70;92.70;;;;;;5106452;28;20412;-70
2022/01/24 18:38:49;;;;;;;81.07;49.93;;;8.70;92.60;;;;;;5105824;28;20425;-70
2022/01/24 18:41:14;;;;;;;78.28;48.25;;;8.60;92.50;;;;;;5113266;28;20400;-71
2022/01/24 18:43:40;;;;;;;82.23;49.80;;;8.60;92.50;;;;;;5106573;28;20859;-71
2022/01/24 18:46:07;;;;;;;80.72;49.80;;;8.60;92.50;;;;;;5106782;28;20408;-71
2022/01/24 18:48:33;;;;;;;75.95;48.40;;;8.60;92.40;;;;;;5109923;28;20418;-72
2022/01/24 18:51:00;;;;;;;76.50;48.53;;;8.60;92.50;;;;;;5107610;28;20520;-70
2022/01/24 18:53:26;;;;;;;76.70;48.78;;;8.60;92.60;;;;;;5107204;28;20404;-71
2022/01/24 18:55:53;;;;;;;76.00;49.88;;;8.60;92.40;;;;;;5136825;27;21290;-70
2022/01/24 18:58:19;;;;;;;76.22;49.17;;;8.60;92.30;;;;;;5105832;28;20434;-71
2022/01/24 19:00:45;;;;;;;77.20;50.47;;;8.60;92.40;;;;;;5108357;28;20402;-69
2022/01/24 19:03:10;;;;;;;78.90;50.55;;;8.50;92.50;;;;;;5105944;28;20464;-71
2022/01/24 19:05:36;;;;;;;77.10;50.37;;;8.50;92.80;;;;;;5107660;28;20446;-71
2022/01/24 19:08:05;;;;;;;77.55;49.78;;;8.50;92.60;;;;;;5102744;28;20426;-71
2022/01/24 19:10:32;;;;;;;78.50;50.30;;;8.50;92.90;;;;;;5103984;28;20404;-72
2022/01/24 19:12:59;;;;;;;78.00;50.20;;;8.50;92.80;;;;;;5102978;28;20482;-70
2022/01/24 19:15:30;;;;;;;79.28;50.63;;;8.50;92.60;;;;;;5103890;28;20412;-70
2022/01/24 19:18:13;;;;;;;74.82;49.05;;;8.50;92.60;;;;;;5104578;28;20497;-70
2022/01/24 19:23:26;;;;;;;73.80;48.47;;;8.50;92.40;;;;;;5104177;28;20925;-72
2022/01/24 19:25:56;;;;;;;77.03;50.25;;;8.40;92.50;;;;;;5120191;27;20439;-71
2022/01/24 19:28:24;;;;;;;80.90;51.70;;;8.50;92.40;;;;;;5087450;28;20416;-72
2022/01/24 19:30:49;;;;;;;74.53;48.47;;;8.40;92.50;;;;;;5104884;28;20426;-73
2022/01/24 19:33:18;;;;;;;76.30;50.30;;;8.40;92.10;;;;;;5104040;28;20420;-71
2022/01/24 19:35:44;;;;;;;77.43;51.05;;;8.40;91.80;;;;;;5106112;28;20458;-71
2022/01/24 19:38:10;;;;;;;76.75;49.63;;;8.40;92.10;;;;;;5102378;28;20444;-71
2022/01/24 19:40:35;;;;;;;76.50;50.97;;;8.40;92.10;;;;;;5105675;28;20769;-71
2022/01/24 19:43:01;;;;;;;78.18;50.10;;;8.40;92.10;;;;;;5104636;27;20491;-72
2022/01/24 19:45:29;;;;;;;77.17;49.10;;;8.40;92.20;;;;;;5106777;27;20423;-71
2022/01/24 19:47:56;;;;;;;74.43;48.42;;;8.40;92.30;;;;;;5114703;27;20750;-72
2022/01/24 19:50:23;;;;;;;75.23;48.70;;;8.50;92.30;;;;;;5115725;27;20472;-73
2022/01/24 19:52:49;;;;;;;78.13;49.83;;;8.50;92.30;;;;;;5113390;27;20411;-72
2022/01/24 19:55:30;;;;;;;76.30;49.37;;;8.40;92.30;;;;;;5110955;27;20404;-72
2022/01/24 19:58:08;;;;;;;78.20;50.80;;;8.40;92.40;;;;;;5121326;27;20412;-73
2022/01/24 20:00:36;;;;;;;78.75;51.20;;;8.40;92.30;;;;;;5114458;27;20776;-72